createdAt,value
2019-05-22T00:01:47.490Z,99.90
2019-05-22T00:04:35.042Z,99.90
2019-05-22T00:07:36.827Z,99.90
2019-05-22T00:10:23.066Z,99.90
2019-05-22T00:13:08.308Z,99.90
2019-05-22T00:15:54.742Z,99.90
2019-05-22T00:18:39.871Z,99.90
2019-05-22T00:21:35.438Z,99.90
2019-05-22T00:24:21.978Z,99.90
2019-05-22T00:27:07.383Z,99.90
2019-05-22T00:29:53.947Z,99.90
2019-05-22T00:32:39.403Z,99.90
2019-05-22T00:35:25.250Z,99.90
2019-05-22T00:38:11.924Z,99.90
2019-05-22T00:40:58.420Z,99.90
2019-05-22T00:43:44.447Z,99.90
2019-05-22T00:46:30.061Z,99.90
2019-05-22T00:50:08.529Z,99.90
2019-05-22T00:53:28.588Z,99.90
2019-05-22T00:56:30.158Z,99.90
2019-05-22T00:59:19.011Z,99.90
2019-05-22T01:02:06.587Z,99.90
2019-05-22T01:05:09.239Z,99.90
2019-05-22T01:07:56.683Z,99.90
2019-05-22T01:10:57.555Z,99.90
2019-05-22T01:13:42.756Z,99.90
2019-05-22T01:16:37.043Z,99.90
2019-05-22T01:19:22.042Z,99.90
2019-05-22T01:22:16.032Z,99.90
2019-05-22T01:25:16.017Z,99.90
2019-05-22T01:28:13.139Z,99.90
2019-05-22T01:31:13.675Z,99.90
2019-05-22T01:37:14.247Z,99.90
2019-05-22T01:40:05.043Z,99.90
2019-05-22T01:42:52.133Z,99.90
2019-05-22T01:45:39.042Z,99.90
2019-05-22T01:48:23.549Z,99.90
2019-05-22T01:51:18.047Z,99.90
2019-05-22T01:54:02.587Z,99.90
2019-05-22T01:57:04.096Z,99.90
2019-05-22T01:59:49.635Z,99.90
2019-05-22T02:02:47.575Z,99.90
2019-05-22T02:05:33.377Z,99.90
2019-05-22T02:08:27.983Z,99.90
2019-05-22T02:11:12.828Z,99.90
2019-05-22T02:13:57.945Z,99.90
2019-05-22T02:16:57.122Z,99.90
2019-05-22T02:19:50.350Z,99.90
2019-05-22T02:22:35.575Z,99.90
2019-05-22T02:25:30.054Z,99.90
2019-05-22T02:28:14.735Z,99.90
2019-05-22T02:30:59.296Z,99.90
2019-05-22T02:34:02.905Z,99.90
2019-05-22T02:36:47.782Z,99.90
2019-05-22T02:39:34.920Z,99.90
2019-05-22T02:42:20.592Z,99.90
2019-05-22T02:45:18.040Z,99.90
2019-05-22T02:48:02.405Z,99.90
2019-05-22T02:50:55.660Z,99.90
2019-05-22T02:53:40.817Z,99.40
2019-05-22T02:56:25.595Z,99.30
2019-05-22T02:59:09.837Z,99.60
2019-05-22T03:01:54.396Z,99.30
2019-05-22T03:04:40.055Z,99.60
2019-05-22T03:07:27.433Z,99.90
2019-05-22T03:10:12.072Z,99.70
2019-05-22T03:12:56.927Z,99.80
2019-05-22T03:15:42.193Z,99.90
2019-05-22T03:18:26.734Z,99.90
2019-05-22T03:21:11.626Z,99.90
2019-05-22T03:23:56.082Z,99.90
2019-05-22T03:26:40.489Z,99.30
2019-05-22T03:29:35.093Z,99.60
2019-05-22T03:32:19.516Z,99.90
2019-05-22T03:35:12.828Z,99.90
2019-05-22T03:37:59.186Z,99.80
2019-05-22T03:40:44.197Z,99.90
2019-05-22T03:43:29.491Z,99.40
2019-05-22T03:46:25.100Z,99.40
2019-05-22T03:49:28.343Z,99.60
2019-05-22T03:51:57.228Z,99.70
2019-05-22T03:54:43.507Z,99.90
2019-05-22T03:57:28.983Z,99.80
2019-05-22T04:00:15.695Z,99.90
2019-05-22T04:03:11.128Z,99.90
2019-05-22T04:06:06.132Z,99.90
2019-05-22T04:08:51.552Z,99.60
2019-05-22T04:11:36.345Z,99.70
2019-05-22T04:14:21.397Z,99.10
2019-05-22T04:17:16.533Z,99.30
2019-05-22T04:20:01.533Z,99.50
2019-05-22T04:22:46.484Z,99.60
2019-05-22T04:25:30.956Z,99.60
2019-05-22T04:28:16.191Z,99.50
2019-05-22T04:31:01.668Z,99.80
2019-05-22T04:33:55.294Z,99.90
2019-05-22T04:36:39.983Z,99.90
2019-05-22T04:39:25.923Z,99.90
2019-05-22T04:42:11.819Z,99.90
2019-05-22T04:45:08.156Z,99.60
2019-05-22T04:47:53.068Z,99.40
2019-05-22T04:50:38.057Z,99.10
2019-05-22T04:53:22.773Z,99.10
2019-05-22T04:56:07.980Z,99.60
2019-05-22T04:58:52.935Z,99.00
2019-05-22T05:01:46.789Z,99.00
2019-05-22T05:04:31.889Z,99.10
2019-05-22T05:07:27.255Z,99.10
2019-05-22T05:10:11.743Z,99.20
2019-05-22T05:12:56.541Z,99.40
2019-05-22T05:15:40.959Z,99.30
2019-05-22T05:18:26.088Z,99.30
2019-05-22T05:21:10.818Z,98.80
2019-05-22T05:24:05.475Z,98.50
2019-05-22T05:26:50.272Z,98.70
2019-05-22T05:29:35.095Z,98.10
2019-05-22T05:32:19.497Z,97.90
2019-05-22T05:35:04.568Z,97.80
2019-05-22T05:37:49.200Z,97.80
2019-05-22T05:40:39.171Z,97.40
2019-05-22T05:43:32.997Z,97.80
2019-05-22T05:46:17.632Z,97.70
2019-05-22T05:49:02.064Z,97.40
2019-05-22T05:51:48.691Z,97.60
2019-05-22T05:54:35.039Z,97.20
2019-05-22T05:57:19.583Z,97.40
2019-05-22T06:00:05.132Z,97.60
2019-05-22T06:02:56.419Z,97.60
2019-05-22T06:05:45.453Z,97.60
2019-05-22T06:08:30.528Z,97.60
2019-05-22T06:11:15.357Z,97.00
2019-05-22T06:14:00.168Z,96.80
2019-05-22T06:17:12.124Z,96.60
2019-05-22T06:20:16.761Z,96.50
2019-05-22T06:23:12.012Z,96.50
2019-05-22T06:25:58.167Z,96.80
2019-05-22T06:28:52.532Z,96.40
2019-05-22T06:31:48.384Z,96.40
2019-05-22T06:34:45.431Z,96.10
2019-05-22T06:37:30.811Z,96.10
2019-05-22T06:40:16.899Z,95.80
2019-05-22T06:43:01.455Z,96.50
2019-05-22T06:45:46.103Z,96.10
2019-05-22T06:48:30.630Z,96.00
2019-05-22T06:51:25.992Z,95.40
2019-05-22T06:54:19.445Z,95.30
2019-05-22T06:57:06.001Z,94.80
2019-05-22T07:00:10.870Z,95.10
2019-05-22T07:02:37.401Z,94.80
2019-05-22T07:05:21.976Z,94.80
2019-05-22T07:08:09.379Z,94.80
2019-05-22T07:10:53.858Z,94.60
2019-05-22T07:13:50.068Z,94.70
2019-05-22T07:16:35.024Z,94.90
2019-05-22T07:19:20.152Z,94.90
2019-05-22T07:22:05.100Z,94.90
2019-05-22T07:24:49.587Z,94.80
2019-05-22T07:27:34.427Z,94.80
2019-05-22T07:30:18.882Z,94.80
2019-05-22T07:33:03.806Z,94.00
2019-05-22T07:36:07.855Z,94.10
2019-05-22T07:38:35.279Z,93.90
2019-05-22T07:41:19.691Z,93.70
2019-05-22T07:44:04.149Z,93.70
2019-05-22T07:46:58.080Z,94.00
2019-05-22T07:49:51.629Z,93.50
2019-05-22T07:52:36.316Z,93.70
2019-05-22T07:55:21.272Z,93.60
2019-05-22T07:58:06.043Z,93.10
2019-05-22T08:04:27.954Z,93.00
2019-05-22T08:07:23.888Z,92.70
2019-05-22T08:10:20.910Z,92.70
2019-05-22T08:13:05.884Z,92.50
2019-05-22T08:15:50.053Z,92.10
2019-05-22T08:18:45.276Z,92.00
2019-05-22T08:21:30.334Z,91.70
2019-05-22T08:24:15.336Z,90.90
2019-05-22T08:26:59.808Z,90.60
2019-05-22T08:29:44.603Z,90.80
2019-05-22T08:32:29.295Z,91.30
2019-05-22T08:35:13.696Z,90.60
2019-05-22T08:38:09.846Z,90.90
2019-05-22T08:41:03.851Z,90.20
2019-05-22T08:44:13.634Z,90.50
2019-05-22T08:46:35.961Z,90.70
2019-05-22T08:49:21.483Z,90.80
2019-05-22T08:52:05.795Z,90.90
2019-05-22T08:54:50.556Z,89.50
2019-05-22T08:57:35.228Z,89.60
2019-05-22T09:00:21.948Z,90.00
2019-05-22T09:03:06.289Z,89.80
2019-05-22T09:05:59.653Z,89.00
2019-05-22T09:08:44.229Z,88.50
2019-05-22T09:11:29.191Z,88.20
2019-05-22T09:14:14.080Z,87.60
2019-05-22T09:16:59.108Z,86.30
2019-05-22T09:19:43.187Z,87.60
2019-05-22T09:22:40.011Z,85.00
2019-05-22T09:25:14.231Z,84.80
2019-05-22T09:27:59.213Z,85.40
2019-05-22T09:30:44.040Z,85.30
2019-05-22T09:33:28.746Z,85.40
2019-05-22T09:36:13.867Z,86.40
2019-05-22T09:38:58.545Z,87.00
2019-05-22T09:41:43.225Z,86.20
2019-05-22T09:44:27.736Z,87.30
2019-05-22T09:47:20.992Z,85.60
2019-05-22T09:50:06.268Z,84.00
2019-05-22T09:52:59.976Z,84.00
2019-05-22T09:55:47.413Z,84.50
2019-05-22T09:58:42.636Z,85.00
2019-05-22T10:01:27.303Z,84.70
2019-05-22T10:04:12.512Z,83.30
2019-05-22T10:06:58.608Z,83.20
2019-05-22T10:09:43.091Z,84.70
2019-05-22T10:12:27.581Z,82.80
2019-05-22T10:15:12.524Z,82.10
2019-05-22T10:17:57.655Z,82.80
2019-05-22T10:20:42.544Z,81.30
2019-05-22T10:23:26.994Z,80.40
2019-05-22T10:26:11.847Z,81.30
2019-05-22T10:28:55.955Z,82.80
2019-05-22T10:31:50.936Z,82.30
2019-05-22T10:34:37.084Z,82.00
2019-05-22T10:37:23.245Z,81.50
2019-05-22T10:40:09.907Z,81.00
2019-05-22T10:42:57.258Z,79.50
2019-05-22T10:45:54.675Z,78.20
2019-05-22T10:48:50.051Z,79.70
2019-05-22T10:51:44.909Z,80.00
2019-05-22T10:54:31.220Z,79.10
2019-05-22T10:57:16.312Z,78.90
2019-05-22T11:00:01.759Z,80.40
2019-05-22T11:02:47.812Z,80.30
2019-05-22T11:05:32.232Z,80.50
2019-05-22T11:08:17.269Z,80.60
2019-05-22T11:11:01.653Z,80.40
2019-05-22T11:13:59.815Z,80.30
2019-05-22T11:16:33.042Z,80.10
2019-05-22T11:19:17.523Z,80.30
2019-05-22T11:22:02.121Z,80.70
2019-05-22T11:24:46.471Z,79.60
2019-05-22T11:27:32.152Z,78.80
2019-05-22T11:30:17.024Z,79.80
2019-05-22T11:33:01.909Z,80.10
2019-05-22T11:35:46.688Z,77.70
2019-05-22T11:38:31.333Z,76.50
2019-05-22T11:41:17.462Z,76.40
2019-05-22T11:44:01.607Z,76.90
2019-05-22T11:46:55.243Z,74.90
2019-05-22T11:49:39.777Z,72.20
2019-05-22T11:52:24.742Z,71.00
2019-05-22T11:55:10.838Z,67.70
2019-05-22T11:57:55.727Z,67.60
2019-05-22T12:00:40.301Z,67.50
2019-05-22T12:03:25.666Z,68.00
2019-05-22T12:06:10.042Z,65.60
2019-05-22T12:08:54.623Z,63.10
2019-05-22T12:11:43.139Z,63.50
2019-05-22T12:14:26.868Z,61.90
2019-05-22T12:17:36.759Z,61.80
2019-05-22T12:20:06.635Z,60.70
2019-05-22T12:22:50.757Z,59.90
2019-05-22T12:25:44.364Z,60.10
2019-05-22T12:28:29.100Z,58.90
2019-05-22T12:31:13.685Z,59.70
2019-05-22T12:33:58.311Z,61.30
2019-05-22T12:36:43.076Z,60.40
2019-05-22T12:39:28.055Z,61.50
2019-05-22T12:42:13.567Z,63.30
2019-05-22T12:45:07.173Z,60.00
2019-05-22T12:47:52.198Z,59.00
2019-05-22T12:50:36.544Z,58.70
2019-05-22T12:53:21.174Z,58.20
2019-05-22T12:56:06.421Z,57.80
2019-05-22T12:58:51.381Z,58.50
2019-05-22T13:01:36.492Z,58.90
2019-05-22T13:04:22.355Z,58.80
2019-05-22T13:07:06.815Z,57.70
2019-05-22T13:09:51.179Z,57.10
2019-05-22T13:12:44.904Z,56.50
2019-05-22T13:15:29.616Z,55.60
2019-05-22T13:18:14.681Z,54.50
2019-05-22T13:21:00.226Z,55.60
2019-05-22T13:23:56.286Z,53.70
2019-05-22T13:26:40.513Z,54.00
2019-05-22T13:29:34.744Z,53.50
2019-05-22T13:32:28.960Z,54.40
2019-05-22T13:35:23.870Z,54.40
2019-05-22T13:38:17.517Z,54.80
2019-05-22T13:41:01.910Z,55.80
2019-05-22T13:43:47.559Z,55.70
2019-05-22T13:46:41.101Z,55.60
2019-05-22T13:49:26.351Z,55.80
2019-05-22T13:52:10.883Z,55.50
2019-05-22T13:54:55.132Z,53.10
2019-05-22T13:57:40.788Z,53.20
2019-05-22T14:00:26.123Z,53.20
2019-05-22T14:03:19.751Z,54.60
2019-05-22T14:06:04.607Z,54.70
2019-05-22T14:08:49.565Z,54.10
2019-05-22T14:11:44.000Z,53.80
2019-05-22T14:14:37.823Z,53.30
2019-05-22T14:17:23.355Z,53.50
2019-05-22T14:20:16.623Z,53.20
2019-05-22T14:23:01.504Z,51.90
2019-05-22T14:25:46.396Z,52.00
2019-05-22T14:28:31.128Z,50.80
2019-05-22T14:31:15.363Z,50.50
2019-05-22T14:34:00.267Z,50.60
2019-05-22T14:36:45.430Z,49.70
2019-05-22T14:39:30.578Z,49.70
2019-05-22T14:42:16.875Z,49.20
2019-05-22T14:45:13.069Z,48.50
2019-05-22T14:47:59.749Z,48.50
2019-05-22T14:50:46.060Z,49.20
2019-05-22T14:53:32.545Z,49.60
2019-05-22T14:56:18.948Z,49.30
2019-05-22T14:59:04.463Z,49.70
2019-05-22T15:02:01.699Z,50.00
2019-05-22T15:04:57.260Z,50.10
2019-05-22T15:07:43.559Z,50.70
2019-05-22T15:10:30.995Z,50.80
2019-05-22T15:13:27.685Z,51.50
2019-05-22T15:16:23.657Z,51.60
2019-05-22T15:19:09.303Z,50.50
2019-05-22T15:22:06.412Z,50.30
2019-05-22T15:24:52.668Z,49.20
2019-05-22T15:27:39.702Z,48.60
2019-05-22T15:30:35.964Z,49.00
2019-05-22T15:33:37.883Z,48.60
2019-05-22T15:36:24.787Z,47.30
2019-05-22T15:39:24.587Z,45.90
2019-05-22T15:42:29.637Z,46.60
2019-05-22T15:45:15.232Z,47.40
2019-05-22T15:48:15.161Z,48.10
2019-05-22T15:50:59.611Z,48.50
2019-05-22T15:53:44.267Z,48.40
2019-05-22T15:56:28.833Z,48.70
2019-05-22T15:59:22.907Z,47.80
2019-05-22T16:02:09.300Z,49.10
2019-05-22T16:04:53.982Z,49.30
2019-05-22T16:07:39.256Z,49.00
2019-05-22T16:10:33.492Z,50.10
2019-05-22T16:13:19.120Z,50.70
2019-05-22T16:16:14.787Z,50.50
2019-05-22T16:18:59.884Z,49.90
2019-05-22T16:21:53.999Z,49.50
2019-05-22T16:24:38.839Z,49.80
2019-05-22T16:27:23.388Z,50.50
2019-05-22T16:30:08.323Z,51.10
2019-05-22T16:32:53.471Z,50.30
2019-05-22T16:35:38.399Z,49.70
2019-05-22T16:38:33.384Z,50.60
2019-05-22T16:41:18.065Z,51.10
2019-05-22T16:44:13.982Z,51.70
2019-05-22T16:46:59.073Z,50.40
2019-05-22T16:49:52.947Z,50.00
2019-05-22T16:52:37.593Z,50.10
2019-05-22T16:55:23.036Z,50.30
2019-05-22T16:58:16.723Z,51.30
2019-05-22T17:01:01.345Z,51.10
2019-05-22T17:03:45.807Z,50.50
2019-05-22T17:06:30.065Z,50.10
2019-05-22T17:09:24.564Z,50.80
2019-05-22T17:12:09.689Z,51.00
2019-05-22T17:15:04.119Z,50.60
2019-05-22T17:17:49.133Z,50.60
2019-05-22T17:20:33.950Z,50.70
2019-05-22T17:23:19.312Z,50.70
2019-05-22T17:26:04.271Z,50.60
2019-05-22T17:28:48.383Z,51.50
2019-05-22T17:31:33.178Z,51.60
2019-05-22T17:34:36.884Z,51.90
2019-05-22T17:37:30.589Z,51.00
2019-05-22T17:40:24.347Z,51.10
2019-05-22T17:43:09.560Z,50.60
2019-05-22T17:46:03.880Z,51.10
2019-05-22T17:48:57.763Z,51.00
2019-05-22T17:51:42.194Z,51.00
2019-05-22T17:54:36.656Z,52.10
2019-05-22T17:57:21.649Z,52.80
2019-05-22T18:00:07.633Z,52.70
2019-05-22T18:02:52.259Z,53.10
2019-05-22T18:05:37.245Z,53.70
2019-05-22T18:08:23.195Z,54.10
2019-05-22T18:11:08.124Z,54.60
2019-05-22T18:13:52.755Z,55.10
2019-05-22T18:16:37.724Z,55.20
2019-05-22T18:19:22.191Z,55.90
2019-05-22T18:22:16.816Z,56.00
2019-05-22T18:25:11.236Z,56.30
2019-05-22T18:28:04.681Z,57.00
2019-05-22T18:30:49.280Z,57.60
2019-05-22T18:33:33.800Z,57.90
2019-05-22T18:36:18.340Z,58.50
2019-05-22T18:39:13.507Z,58.90
2019-05-22T18:41:57.635Z,59.20
2019-05-22T18:44:42.479Z,59.30
2019-05-22T18:47:26.993Z,60.00
2019-05-22T18:50:11.993Z,59.80
2019-05-22T18:52:56.727Z,59.80
2019-05-22T18:55:41.300Z,60.40
2019-05-22T18:58:34.835Z,61.20
2019-05-22T19:01:20.045Z,62.50
2019-05-22T19:04:13.834Z,62.80
2019-05-22T19:06:58.828Z,63.10
2019-05-22T19:09:52.528Z,63.70
2019-05-22T19:12:37.752Z,64.30
2019-05-22T19:15:22.620Z,65.20
2019-05-22T19:18:16.778Z,66.00
2019-05-22T19:21:11.016Z,66.70
2019-05-22T19:23:55.800Z,67.20
2019-05-22T19:26:40.164Z,66.70
2019-05-22T19:29:24.569Z,67.00
2019-05-22T19:32:20.688Z,67.50
2019-05-22T19:35:05.056Z,67.80
2019-05-22T19:37:52.417Z,66.40
2019-05-22T19:40:37.728Z,67.00
2019-05-22T19:43:33.655Z,66.30
2019-05-22T19:46:19.475Z,66.50
2019-05-22T19:49:13.487Z,67.50
2019-05-22T19:51:58.172Z,67.90
2019-05-22T19:54:42.948Z,68.00
2019-05-22T19:57:27.559Z,68.70
2019-05-22T20:00:12.611Z,71.00
2019-05-22T20:02:58.199Z,72.20
2019-05-22T20:05:53.832Z,71.90
2019-05-22T20:08:47.335Z,73.80
2019-05-22T20:11:32.550Z,74.70
2019-05-22T20:14:26.238Z,75.30
2019-05-22T20:17:11.823Z,78.50
2019-05-22T20:19:57.450Z,80.70
2019-05-22T20:22:42.959Z,82.20
2019-05-22T20:25:37.153Z,84.30
2019-05-22T20:28:31.454Z,86.60
2019-05-22T20:31:24.788Z,88.50
2019-05-22T20:34:10.029Z,89.90
2019-05-22T20:37:03.847Z,90.50
2019-05-22T20:39:48.637Z,91.50
2019-05-22T20:42:33.885Z,92.10
2019-05-22T20:45:29.620Z,92.70
2019-05-22T20:48:29.891Z,92.90
2019-05-22T20:51:16.595Z,93.30
2019-05-22T20:54:00.859Z,93.50
2019-05-22T20:56:46.672Z,93.70
2019-05-22T20:59:42.051Z,94.10
2019-05-22T21:02:27.041Z,94.40
2019-05-22T21:05:12.898Z,94.60
2019-05-22T21:07:58.268Z,94.70
2019-05-22T21:10:43.435Z,94.80
2019-05-22T21:13:38.142Z,95.10
2019-05-22T21:16:23.141Z,95.00
2019-05-22T21:19:07.987Z,95.00
2019-05-22T21:21:53.249Z,95.10
2019-05-22T21:24:38.040Z,95.10
2019-05-22T21:27:23.013Z,95.30
2019-05-22T21:30:22.286Z,95.50
2019-05-22T21:33:15.867Z,95.70
2019-05-22T21:36:00.740Z,95.70
2019-05-22T21:38:44.931Z,95.50
2019-05-22T21:41:30.323Z,95.20
2019-05-22T21:44:15.442Z,95.40
2019-05-22T21:47:00.187Z,95.60
2019-05-22T21:49:44.570Z,95.50
2019-05-22T21:52:29.692Z,95.70
2019-05-22T21:55:14.524Z,95.90
2019-05-22T21:57:59.131Z,95.70
2019-05-22T22:01:02.587Z,95.40
2019-05-22T22:03:50.008Z,95.80
2019-05-22T22:06:51.669Z,96.10
2019-05-22T22:13:12.759Z,96.30
2019-05-22T22:15:57.384Z,95.40
2019-05-22T22:18:42.148Z,95.00
2019-05-22T22:21:27.266Z,94.80
2019-05-22T22:24:13.231Z,94.70
2019-05-22T22:26:58.158Z,94.50
2019-05-22T22:29:42.757Z,94.20
2019-05-22T22:32:28.972Z,94.10
2019-05-22T22:35:13.820Z,94.20
2019-05-22T22:37:58.933Z,94.60
2019-05-22T22:40:43.843Z,95.60
2019-05-22T22:43:28.010Z,95.40
2019-05-22T22:46:18.388Z,95.60
2019-05-22T22:49:05.439Z,95.80
2019-05-22T22:51:50.357Z,96.00
2019-05-22T22:54:35.627Z,96.60
2019-05-22T22:57:20.620Z,97.10
2019-05-22T23:00:05.208Z,97.50
2019-05-22T23:02:50.476Z,97.40
2019-05-22T23:05:34.901Z,97.50
2019-05-22T23:08:19.823Z,98.00
2019-05-22T23:11:04.457Z,97.90
2019-05-22T23:13:49.459Z,97.90
2019-05-22T23:16:34.756Z,98.20
2019-05-22T23:19:28.455Z,98.20
2019-05-22T23:22:31.901Z,98.00
2019-05-22T23:25:17.241Z,98.00
2019-05-22T23:28:02.482Z,97.90
2019-05-22T23:30:56.687Z,97.90
2019-05-22T23:33:51.535Z,98.00
2019-05-22T23:36:36.163Z,98.20
2019-05-22T23:39:21.591Z,98.40
2019-05-22T23:42:17.427Z,98.30
2019-05-22T23:45:02.215Z,98.30
2019-05-22T23:47:47.243Z,98.40
2019-05-22T23:50:31.995Z,98.30
2019-05-22T23:53:18.307Z,98.30
2019-05-22T23:56:04.139Z,98.50
2019-05-22T23:58:58.390Z,98.50
